sensor_id;sensor_type;location;lat;lon;timestamp;temperature;humidity
36446;DHT22;22472;50.848;-1.216;2022-08-01T00:00:31;18.90;99.90
36446;DHT22;22472;50.848;-1.216;2022-08-01T00:02:58;18.90;99.90
36446;DHT22;22472;50.848;-1.216;2022-08-01T00:05:25;18.80;99.90
36446;DHT22;22472;50.848;-1.216;2022-08-01T00:07:52;18.80;99.90
36446;DHT22;22472;50.848;-1.216;2022-08-01T00:10:19;18.80;99.90
36446;DHT22;22472;50.848;-1.216;2022-08-01T00:12:47;18.80;99.90
36446;DHT22;22472;50.848;-1.216;2022-08-01T00:15:17;18.80;99.90
36446;DHT22;22472;50.848;-1.216;2022-08-01T00:17:44;18.80;99.90
36446;DHT22;22472;50.848;-1.216;2022-08-01T00:20:13;18.70;99.90
36446;DHT22;22472;50.848;-1.216;2022-08-01T00:22:40;18.70;99.90
36446;DHT22;22472;50.848;-1.216;2022-08-01T00:25:08;18.60;99.90
36446;DHT22;22472;50.848;-1.216;2022-08-01T00:27:35;18.60;99.90
36446;DHT22;22472;50.848;-1.216;2022-08-01T00:30:05;18.50;99.90
36446;DHT22;22472;50.848;-1.216;2022-08-01T00:32:32;18.50;99.90
36446;DHT22;22472;50.848;-1.216;2022-08-01T00:34:59;18.50;99.90
36446;DHT22;22472;50.848;-1.216;2022-08-01T00:37:26;18.40;99.90
36446;DHT22;22472;50.848;-1.216;2022-08-01T00:39:53;18.40;99.90
36446;DHT22;22472;50.848;-1.216;2022-08-01T00:42:20;18.40;99.90
36446;DHT22;22472;50.848;-1.216;2022-08-01T00:44:47;18.30;99.90
36446;DHT22;22472;50.848;-1.216;2022-08-01T00:47:16;18.30;99.90
36446;DHT22;22472;50.848;-1.216;2022-08-01T00:49:43;18.40;99.90
36446;DHT22;22472;50.848;-1.216;2022-08-01T00:52:10;18.30;99.90
36446;DHT22;22472;50.848;-1.216;2022-08-01T00:54:37;18.30;99.90
36446;DHT22;22472;50.848;-1.216;2022-08-01T00:57:05;18.30;99.90
36446;DHT22;22472;50.848;-1.216;2022-08-01T00:59:33;18.20;99.90
36446;DHT22;22472;50.848;-1.216;2022-08-01T01:02:01;18.20;99.90
36446;DHT22;22472;50.848;-1.216;2022-08-01T01:04:29;18.20;99.90
36446;DHT22;22472;50.848;-1.216;2022-08-01T01:07:01;18.10;99.90
36446;DHT22;22472;50.848;-1.216;2022-08-01T01:09:35;18.20;99.90
36446;DHT22;22472;50.848;-1.216;2022-08-01T01:12:13;18.10;99.90
36446;DHT22;22472;50.848;-1.216;2022-08-01T01:14:45;18.10;99.90
36446;DHT22;22472;50.848;-1.216;2022-08-01T01:17:20;18.10;99.90
36446;DHT22;22472;50.848;-1.216;2022-08-01T01:19:51;18.00;99.90
36446;DHT22;22472;50.848;-1.216;2022-08-01T01:22:27;18.00;99.90
36446;DHT22;22472;50.848;-1.216;2022-08-01T01:25:19;17.90;99.90
36446;DHT22;22472;50.848;-1.216;2022-08-01T01:27:50;17.90;99.90
36446;DHT22;22472;50.848;-1.216;2022-08-01T01:30:20;17.80;99.90
36446;DHT22;22472;50.848;-1.216;2022-08-01T01:32:50;17.80;99.90
36446;DHT22;22472;50.848;-1.216;2022-08-01T01:35:22;17.80;99.90
36446;DHT22;22472;50.848;-1.216;2022-08-01T01:37:52;17.80;99.90
36446;DHT22;22472;50.848;-1.216;2022-08-01T01:40:21;17.80;99.90
36446;DHT22;22472;50.848;-1.216;2022-08-01T01:42:51;17.70;99.90
36446;DHT22;22472;50.848;-1.216;2022-08-01T01:45:22;17.70;99.90
36446;DHT22;22472;50.848;-1.216;2022-08-01T01:47:50;17.80;99.90
36446;DHT22;22472;50.848;-1.216;2022-08-01T01:50:20;17.80;99.90
36446;DHT22;22472;50.848;-1.216;2022-08-01T01:52:48;17.70;99.90
36446;DHT22;22472;50.848;-1.216;2022-08-01T01:55:15;17.70;99.90
36446;DHT22;22472;50.848;-1.216;2022-08-01T01:57:44;17.70;99.90
36446;DHT22;22472;50.848;-1.216;2022-08-01T02:00:13;17.70;99.90
36446;DHT22;22472;50.848;-1.216;2022-08-01T02:02:43;17.70;99.90
36446;DHT22;22472;50.848;-1.216;2022-08-01T02:05:11;17.70;99.90
36446;DHT22;22472;50.848;-1.216;2022-08-01T02:07:58;17.70;99.90
36446;DHT22;22472;50.848;-1.216;2022-08-01T02:10:27;17.70;99.90
36446;DHT22;22472;50.848;-1.216;2022-08-01T02:12:57;17.70;99.90
36446;DHT22;22472;50.848;-1.216;2022-08-01T02:15:26;17.70;99.90
36446;DHT22;22472;50.848;-1.216;2022-08-01T02:17:56;17.70;99.90
36446;DHT22;22472;50.848;-1.216;2022-08-01T02:20:24;17.70;99.90
36446;DHT22;22472;50.848;-1.216;2022-08-01T02:22:57;17.70;99.90
36446;DHT22;22472;50.848;-1.216;2022-08-01T02:25:27;17.70;99.90
36446;DHT22;22472;50.848;-1.216;2022-08-01T02:28:00;17.80;99.90
36446;DHT22;22472;50.848;-1.216;2022-08-01T02:30:32;17.70;99.90
36446;DHT22;22472;50.848;-1.216;2022-08-01T02:33:05;17.70;99.90
36446;DHT22;22472;50.848;-1.216;2022-08-01T02:35:35;17.60;99.90
36446;DHT22;22472;50.848;-1.216;2022-08-01T02:38:05;17.60;99.90
36446;DHT22;22472;50.848;-1.216;2022-08-01T02:40:34;17.60;99.90
36446;DHT22;22472;50.848;-1.216;2022-08-01T02:43:05;17.60;99.90
36446;DHT22;22472;50.848;-1.216;2022-08-01T02:45:35;17.50;99.90
36446;DHT22;22472;50.848;-1.216;2022-08-01T02:48:06;17.50;99.90
36446;DHT22;22472;50.848;-1.216;2022-08-01T02:50:35;17.50;99.90
36446;DHT22;22472;50.848;-1.216;2022-08-01T02:53:04;17.50;99.90
36446;DHT22;22472;50.848;-1.216;2022-08-01T02:55:32;17.50;99.90
36446;DHT22;22472;50.848;-1.216;2022-08-01T02:58:01;17.50;99.90
36446;DHT22;22472;50.848;-1.216;2022-08-01T03:00:30;17.50;99.90
36446;DHT22;22472;50.848;-1.216;2022-08-01T03:02:59;17.50;99.90
36446;DHT22;22472;50.848;-1.216;2022-08-01T03:05:27;17.60;99.90
36446;DHT22;22472;50.848;-1.216;2022-08-01T03:07:57;17.60;99.90
36446;DHT22;22472;50.848;-1.216;2022-08-01T03:10:27;17.60;99.90
36446;DHT22;22472;50.848;-1.216;2022-08-01T03:12:55;17.50;99.90
36446;DHT22;22472;50.848;-1.216;2022-08-01T03:15:24;17.50;99.90
36446;DHT22;22472;50.848;-1.216;2022-08-01T03:17:54;17.50;99.90
36446;DHT22;22472;50.848;-1.216;2022-08-01T03:20:23;17.50;99.90
36446;DHT22;22472;50.848;-1.216;2022-08-01T03:22:53;17.50;99.90
36446;DHT22;22472;50.848;-1.216;2022-08-01T03:25:21;17.50;99.90
36446;DHT22;22472;50.848;-1.216;2022-08-01T03:27:54;17.40;99.90
36446;DHT22;22472;50.848;-1.216;2022-08-01T03:30:23;17.40;99.90
36446;DHT22;22472;50.848;-1.216;2022-08-01T03:32:51;17.40;99.90
36446;DHT22;22472;50.848;-1.216;2022-08-01T03:35:18;17.40;99.90
36446;DHT22;22472;50.848;-1.216;2022-08-01T03:37:46;17.40;99.90
36446;DHT22;22472;50.848;-1.216;2022-08-01T03:40:21;17.30;99.90
36446;DHT22;22472;50.848;-1.216;2022-08-01T03:42:54;17.30;99.90
36446;DHT22;22472;50.848;-1.216;2022-08-01T03:45:25;17.30;99.90
36446;DHT22;22472;50.848;-1.216;2022-08-01T03:47:57;17.40;99.90
36446;DHT22;22472;50.848;-1.216;2022-08-01T03:50:27;17.30;99.90
36446;DHT22;22472;50.848;-1.216;2022-08-01T03:52:57;17.40;99.90
36446;DHT22;22472;50.848;-1.216;2022-08-01T03:55:27;17.40;99.90
36446;DHT22;22472;50.848;-1.216;2022-08-01T03:57:55;17.40;99.90
36446;DHT22;22472;50.848;-1.216;2022-08-01T04:00:24;17.40;99.90
36446;DHT22;22472;50.848;-1.216;2022-08-01T04:02:51;17.40;99.90
36446;DHT22;22472;50.848;-1.216;2022-08-01T04:05:19;17.40;99.90
36446;DHT22;22472;50.848;-1.216;2022-08-01T04:07:47;17.30;99.90
36446;DHT22;22472;50.848;-1.216;2022-08-01T04:10:16;17.40;99.90
36446;DHT22;22472;50.848;-1.216;2022-08-01T04:12:44;17.40;99.90
36446;DHT22;22472;50.848;-1.216;2022-08-01T04:15:11;17.50;99.90
36446;DHT22;22472;50.848;-1.216;2022-08-01T04:17:39;17.50;99.90
36446;DHT22;22472;50.848;-1.216;2022-08-01T04:20:07;17.50;99.90
36446;DHT22;22472;50.848;-1.216;2022-08-01T04:22:34;17.50;99.90
36446;DHT22;22472;50.848;-1.216;2022-08-01T04:25:03;17.50;99.90
36446;DHT22;22472;50.848;-1.216;2022-08-01T04:27:34;17.60;99.90
36446;DHT22;22472;50.848;-1.216;2022-08-01T04:30:06;17.60;99.90
36446;DHT22;22472;50.848;-1.216;2022-08-01T04:32:36;17.70;99.90
36446;DHT22;22472;50.848;-1.216;2022-08-01T04:35:07;17.70;99.90
36446;DHT22;22472;50.848;-1.216;2022-08-01T04:37:36;17.80;99.90
36446;DHT22;22472;50.848;-1.216;2022-08-01T04:40:05;17.80;99.90
36446;DHT22;22472;50.848;-1.216;2022-08-01T04:42:32;17.90;99.90
36446;DHT22;22472;50.848;-1.216;2022-08-01T04:44:59;17.90;99.90
36446;DHT22;22472;50.848;-1.216;2022-08-01T04:47:29;17.90;99.90
36446;DHT22;22472;50.848;-1.216;2022-08-01T04:49:57;18.00;99.90
36446;DHT22;22472;50.848;-1.216;2022-08-01T04:52:34;18.00;99.90
36446;DHT22;22472;50.848;-1.216;2022-08-01T04:55:01;18.10;99.90
36446;DHT22;22472;50.848;-1.216;2022-08-01T04:57:28;18.20;99.90
36446;DHT22;22472;50.848;-1.216;2022-08-01T04:59:56;18.30;99.90
36446;DHT22;22472;50.848;-1.216;2022-08-01T05:02:23;18.30;99.90
36446;DHT22;22472;50.848;-1.216;2022-08-01T05:04:55;18.40;99.90
36446;DHT22;22472;50.848;-1.216;2022-08-01T05:07:22;18.50;99.90
36446;DHT22;22472;50.848;-1.216;2022-08-01T05:09:50;18.50;99.90
36446;DHT22;22472;50.848;-1.216;2022-08-01T05:12:17;18.60;99.90
36446;DHT22;22472;50.848;-1.216;2022-08-01T05:14:45;18.70;99.90
36446;DHT22;22472;50.848;-1.216;2022-08-01T05:17:12;18.70;99.90
36446;DHT22;22472;50.848;-1.216;2022-08-01T05:19:40;18.70;99.90
36446;DHT22;22472;50.848;-1.216;2022-08-01T05:22:09;18.80;99.90
36446;DHT22;22472;50.848;-1.216;2022-08-01T05:24:38;18.80;99.90
36446;DHT22;22472;50.848;-1.216;2022-08-01T05:27:06;18.90;99.90
36446;DHT22;22472;50.848;-1.216;2022-08-01T05:29:34;19.00;99.90
36446;DHT22;22472;50.848;-1.216;2022-08-01T05:32:02;19.00;99.90
36446;DHT22;22472;50.848;-1.216;2022-08-01T05:34:29;19.10;99.90
36446;DHT22;22472;50.848;-1.216;2022-08-01T05:36:56;19.20;99.90
36446;DHT22;22472;50.848;-1.216;2022-08-01T05:39:28;19.20;99.90
36446;DHT22;22472;50.848;-1.216;2022-08-01T05:41:55;19.30;99.90
36446;DHT22;22472;50.848;-1.216;2022-08-01T05:44:22;19.30;99.90
36446;DHT22;22472;50.848;-1.216;2022-08-01T05:46:49;19.40;99.90
36446;DHT22;22472;50.848;-1.216;2022-08-01T05:49:16;19.50;99.90
36446;DHT22;22472;50.848;-1.216;2022-08-01T05:51:43;19.50;99.90
36446;DHT22;22472;50.848;-1.216;2022-08-01T05:54:10;19.60;99.90
36446;DHT22;22472;50.848;-1.216;2022-08-01T05:56:38;19.60;99.90
36446;DHT22;22472;50.848;-1.216;2022-08-01T05:59:05;19.70;99.90
36446;DHT22;22472;50.848;-1.216;2022-08-01T06:01:32;19.70;99.90
36446;DHT22;22472;50.848;-1.216;2022-08-01T06:03:59;19.80;99.90
36446;DHT22;22472;50.848;-1.216;2022-08-01T06:06:26;19.70;99.90
36446;DHT22;22472;50.848;-1.216;2022-08-01T06:08:53;19.80;99.90
36446;DHT22;22472;50.848;-1.216;2022-08-01T06:11:20;19.70;99.90
36446;DHT22;22472;50.848;-1.216;2022-08-01T06:13:48;19.60;99.90
36446;DHT22;22472;50.848;-1.216;2022-08-01T06:16:16;19.60;99.90
36446;DHT22;22472;50.848;-1.216;2022-08-01T06:18:43;19.60;99.90
36446;DHT22;22472;50.848;-1.216;2022-08-01T06:21:10;19.60;99.90
36446;DHT22;22472;50.848;-1.216;2022-08-01T06:23:37;19.70;99.90
36446;DHT22;22472;50.848;-1.216;2022-08-01T06:26:04;19.70;99.90
36446;DHT22;22472;50.848;-1.216;2022-08-01T06:28:31;19.70;99.90
36446;DHT22;22472;50.848;-1.216;2022-08-01T06:31:00;19.70;99.90
36446;DHT22;22472;50.848;-1.216;2022-08-01T06:33:27;19.70;99.90
36446;DHT22;22472;50.848;-1.216;2022-08-01T06:35:54;19.70;99.90
36446;DHT22;22472;50.848;-1.216;2022-08-01T06:38:21;19.80;99.90
36446;DHT22;22472;50.848;-1.216;2022-08-01T06:40:48;19.80;99.90
36446;DHT22;22472;50.848;-1.216;2022-08-01T06:43:15;19.90;99.90
36446;DHT22;22472;50.848;-1.216;2022-08-01T06:45:44;20.00;99.90
36446;DHT22;22472;50.848;-1.216;2022-08-01T06:48:12;20.00;99.90
36446;DHT22;22472;50.848;-1.216;2022-08-01T06:50:39;20.20;99.90
36446;DHT22;22472;50.848;-1.216;2022-08-01T06:53:06;20.30;99.90
36446;DHT22;22472;50.848;-1.216;2022-08-01T06:55:33;20.40;99.90
36446;DHT22;22472;50.848;-1.216;2022-08-01T06:58:00;20.50;99.90
36446;DHT22;22472;50.848;-1.216;2022-08-01T07:00:29;20.40;99.90
36446;DHT22;22472;50.848;-1.216;2022-08-01T07:02:57;20.30;99.90
36446;DHT22;22472;50.848;-1.216;2022-08-01T07:05:26;20.50;99.90
36446;DHT22;22472;50.848;-1.216;2022-08-01T07:07:56;20.60;99.90
36446;DHT22;22472;50.848;-1.216;2022-08-01T07:10:23;20.60;99.90
36446;DHT22;22472;50.848;-1.216;2022-08-01T07:12:50;20.60;99.90
36446;DHT22;22472;50.848;-1.216;2022-08-01T07:15:17;20.60;99.90
36446;DHT22;22472;50.848;-1.216;2022-08-01T07:17:46;20.50;99.90
36446;DHT22;22472;50.848;-1.216;2022-08-01T07:20:13;20.50;99.90
36446;DHT22;22472;50.848;-1.216;2022-08-01T07:22:41;20.70;99.90
36446;DHT22;22472;50.848;-1.216;2022-08-01T07:25:09;20.90;99.90
36446;DHT22;22472;50.848;-1.216;2022-08-01T07:27:36;20.90;99.90
36446;DHT22;22472;50.848;-1.216;2022-08-01T07:30:04;20.90;99.90
36446;DHT22;22472;50.848;-1.216;2022-08-01T07:32:31;20.80;99.90
36446;DHT22;22472;50.848;-1.216;2022-08-01T07:35:00;20.80;99.90
36446;DHT22;22472;50.848;-1.216;2022-08-01T07:37:27;20.80;99.90
36446;DHT22;22472;50.848;-1.216;2022-08-01T07:39:56;20.90;99.90
36446;DHT22;22472;50.848;-1.216;2022-08-01T07:42:23;20.90;99.90
36446;DHT22;22472;50.848;-1.216;2022-08-01T07:44:50;20.90;99.90
36446;DHT22;22472;50.848;-1.216;2022-08-01T07:47:23;20.90;99.90
36446;DHT22;22472;50.848;-1.216;2022-08-01T07:49:50;20.60;99.90
36446;DHT22;22472;50.848;-1.216;2022-08-01T07:52:17;20.70;99.90
36446;DHT22;22472;50.848;-1.216;2022-08-01T07:54:45;20.80;99.90
36446;DHT22;22472;50.848;-1.216;2022-08-01T07:57:13;20.80;99.90
36446;DHT22;22472;50.848;-1.216;2022-08-01T07:59:40;20.70;99.90
36446;DHT22;22472;50.848;-1.216;2022-08-01T08:02:07;20.70;99.90
36446;DHT22;22472;50.848;-1.216;2022-08-01T08:04:34;20.80;99.90
36446;DHT22;22472;50.848;-1.216;2022-08-01T08:07:01;20.70;99.90
36446;DHT22;22472;50.848;-1.216;2022-08-01T08:09:28;20.80;99.90
36446;DHT22;22472;50.848;-1.216;2022-08-01T08:11:55;20.90;99.90
36446;DHT22;22472;50.848;-1.216;2022-08-01T08:14:23;21.00;99.90
36446;DHT22;22472;50.848;-1.216;2022-08-01T08:16:51;21.10;99.90
36446;DHT22;22472;50.848;-1.216;2022-08-01T08:19:18;21.40;99.90
36446;DHT22;22472;50.848;-1.216;2022-08-01T08:21:45;21.40;99.90
36446;DHT22;22472;50.848;-1.216;2022-08-01T08:24:12;21.60;99.90
36446;DHT22;22472;50.848;-1.216;2022-08-01T08:26:51;21.80;99.90
36446;DHT22;22472;50.848;-1.216;2022-08-01T08:29:18;22.10;99.90
36446;DHT22;22472;50.848;-1.216;2022-08-01T08:31:47;22.40;99.90
36446;DHT22;22472;50.848;-1.216;2022-08-01T08:34:14;22.50;99.90
36446;DHT22;22472;50.848;-1.216;2022-08-01T08:36:41;22.40;99.90
36446;DHT22;22472;50.848;-1.216;2022-08-01T08:39:09;22.60;99.90
36446;DHT22;22472;50.848;-1.216;2022-08-01T08:41:36;23.00;99.90
36446;DHT22;22472;50.848;-1.216;2022-08-01T08:44:04;23.10;99.90
36446;DHT22;22472;50.848;-1.216;2022-08-01T08:46:32;23.00;99.90
36446;DHT22;22472;50.848;-1.216;2022-08-01T08:49:02;23.10;99.90
36446;DHT22;22472;50.848;-1.216;2022-08-01T08:51:30;23.00;99.90
36446;DHT22;22472;50.848;-1.216;2022-08-01T08:53:58;22.80;99.90
36446;DHT22;22472;50.848;-1.216;2022-08-01T08:56:27;22.70;99.90
36446;DHT22;22472;50.848;-1.216;2022-08-01T08:58:55;22.70;99.90
36446;DHT22;22472;50.848;-1.216;2022-08-01T09:01:23;22.80;99.90
36446;DHT22;22472;50.848;-1.216;2022-08-01T09:03:50;23.00;99.90
36446;DHT22;22472;50.848;-1.216;2022-08-01T09:06:19;23.00;99.90
36446;DHT22;22472;50.848;-1.216;2022-08-01T09:08:46;23.00;99.90
36446;DHT22;22472;50.848;-1.216;2022-08-01T09:11:13;23.00;99.90
36446;DHT22;22472;50.848;-1.216;2022-08-01T09:13:40;23.10;99.90
36446;DHT22;22472;50.848;-1.216;2022-08-01T09:16:07;23.00;99.90
36446;DHT22;22472;50.848;-1.216;2022-08-01T09:18:38;22.90;99.90
36446;DHT22;22472;50.848;-1.216;2022-08-01T09:21:11;22.90;99.90
36446;DHT22;22472;50.848;-1.216;2022-08-01T09:23:43;22.90;99.90
36446;DHT22;22472;50.848;-1.216;2022-08-01T09:26:12;22.90;99.90
36446;DHT22;22472;50.848;-1.216;2022-08-01T09:28:40;23.00;99.90
36446;DHT22;22472;50.848;-1.216;2022-08-01T09:31:09;23.10;99.90
36446;DHT22;22472;50.848;-1.216;2022-08-01T09:33:53;23.00;99.90
36446;DHT22;22472;50.848;-1.216;2022-08-01T09:36:22;22.90;99.90
36446;DHT22;22472;50.848;-1.216;2022-08-01T09:38:52;22.70;99.90
36446;DHT22;22472;50.848;-1.216;2022-08-01T09:41:29;22.70;99.90
36446;DHT22;22472;50.848;-1.216;2022-08-01T09:44:02;22.80;99.90
36446;DHT22;22472;50.848;-1.216;2022-08-01T09:46:30;23.00;99.90
36446;DHT22;22472;50.848;-1.216;2022-08-01T09:48:59;23.10;99.90
36446;DHT22;22472;50.848;-1.216;2022-08-01T09:51:31;23.40;99.90
36446;DHT22;22472;50.848;-1.216;2022-08-01T09:54:00;23.70;99.90
36446;DHT22;22472;50.848;-1.216;2022-08-01T09:56:37;23.80;99.90
36446;DHT22;22472;50.848;-1.216;2022-08-01T09:59:04;24.10;99.90
36446;DHT22;22472;50.848;-1.216;2022-08-01T10:01:46;24.70;99.90
36446;DHT22;22472;50.848;-1.216;2022-08-01T10:04:15;25.30;99.90
36446;DHT22;22472;50.848;-1.216;2022-08-01T10:06:43;26.00;99.90
36446;DHT22;22472;50.848;-1.216;2022-08-01T10:09:13;26.40;99.90
36446;DHT22;22472;50.848;-1.216;2022-08-01T10:11:40;26.30;99.90
36446;DHT22;22472;50.848;-1.216;2022-08-01T10:14:08;26.10;99.90
36446;DHT22;22472;50.848;-1.216;2022-08-01T10:16:36;26.50;99.90
36446;DHT22;22472;50.848;-1.216;2022-08-01T10:19:03;27.20;99.90
36446;DHT22;22472;50.848;-1.216;2022-08-01T10:21:33;27.80;99.90
36446;DHT22;22472;50.848;-1.216;2022-08-01T10:24:02;27.90;99.90
36446;DHT22;22472;50.848;-1.216;2022-08-01T10:26:33;28.20;99.90
36446;DHT22;22472;50.848;-1.216;2022-08-01T10:29:01;28.30;99.90
36446;DHT22;22472;50.848;-1.216;2022-08-01T10:31:29;28.90;99.90
36446;DHT22;22472;50.848;-1.216;2022-08-01T10:33:59;29.50;99.90
36446;DHT22;22472;50.848;-1.216;2022-08-01T10:36:26;29.20;99.90
36446;DHT22;22472;50.848;-1.216;2022-08-01T10:38:54;29.70;99.90
36446;DHT22;22472;50.848;-1.216;2022-08-01T10:41:22;29.60;99.90
36446;DHT22;22472;50.848;-1.216;2022-08-01T10:43:52;29.50;99.90
36446;DHT22;22472;50.848;-1.216;2022-08-01T10:46:20;29.10;99.90
36446;DHT22;22472;50.848;-1.216;2022-08-01T10:48:52;29.00;99.90
36446;DHT22;22472;50.848;-1.216;2022-08-01T10:51:21;29.50;99.90
36446;DHT22;22472;50.848;-1.216;2022-08-01T10:53:51;29.70;99.90
36446;DHT22;22472;50.848;-1.216;2022-08-01T10:56:19;29.50;99.90
36446;DHT22;22472;50.848;-1.216;2022-08-01T10:58:47;29.50;99.90
36446;DHT22;22472;50.848;-1.216;2022-08-01T11:01:24;30.20;99.90
36446;DHT22;22472;50.848;-1.216;2022-08-01T11:04:03;30.80;99.90
36446;DHT22;22472;50.848;-1.216;2022-08-01T11:06:43;30.10;99.90
36446;DHT22;22472;50.848;-1.216;2022-08-01T11:09:39;30.60;99.90
36446;DHT22;22472;50.848;-1.216;2022-08-01T11:12:09;31.60;99.90
36446;DHT22;22472;50.848;-1.216;2022-08-01T11:17:39;31.50;99.90
36446;DHT22;22472;50.848;-1.216;2022-08-01T11:20:14;30.40;99.90
36446;DHT22;22472;50.848;-1.216;2022-08-01T11:26:19;29.00;99.90
36446;DHT22;22472;50.848;-1.216;2022-08-01T11:29:17;28.90;99.90
36446;DHT22;22472;50.848;-1.216;2022-08-01T11:31:45;29.30;99.90
36446;DHT22;22472;50.848;-1.216;2022-08-01T11:34:12;29.60;99.90
36446;DHT22;22472;50.848;-1.216;2022-08-01T11:36:39;30.50;99.90
36446;DHT22;22472;50.848;-1.216;2022-08-01T11:39:16;31.80;99.90
36446;DHT22;22472;50.848;-1.216;2022-08-01T11:41:48;32.00;99.90
36446;DHT22;22472;50.848;-1.216;2022-08-01T11:44:19;32.00;99.90
36446;DHT22;22472;50.848;-1.216;2022-08-01T11:46:59;31.90;99.90
36446;DHT22;22472;50.848;-1.216;2022-08-01T11:49:31;30.90;99.90
36446;DHT22;22472;50.848;-1.216;2022-08-01T11:52:06;30.60;99.90
36446;DHT22;22472;50.848;-1.216;2022-08-01T11:54:34;30.70;99.90
36446;DHT22;22472;50.848;-1.216;2022-08-01T11:57:03;30.60;99.90
36446;DHT22;22472;50.848;-1.216;2022-08-01T11:59:36;31.10;99.90
36446;DHT22;22472;50.848;-1.216;2022-08-01T12:02:04;32.10;99.90
36446;DHT22;22472;50.848;-1.216;2022-08-01T12:04:52;31.10;99.90
36446;DHT22;22472;50.848;-1.216;2022-08-01T12:07:20;30.30;99.90
36446;DHT22;22472;50.848;-1.216;2022-08-01T12:09:47;29.80;99.90
36446;DHT22;22472;50.848;-1.216;2022-08-01T12:12:16;30.20;99.90
36446;DHT22;22472;50.848;-1.216;2022-08-01T12:14:52;30.40;99.90
36446;DHT22;22472;50.848;-1.216;2022-08-01T12:17:28;30.50;99.90
36446;DHT22;22472;50.848;-1.216;2022-08-01T12:19:55;31.50;99.90
36446;DHT22;22472;50.848;-1.216;2022-08-01T12:22:23;32.40;99.90
36446;DHT22;22472;50.848;-1.216;2022-08-01T12:24:51;33.60;99.90
36446;DHT22;22472;50.848;-1.216;2022-08-01T12:27:26;33.80;99.90
36446;DHT22;22472;50.848;-1.216;2022-08-01T12:29:54;32.60;99.90
36446;DHT22;22472;50.848;-1.216;2022-08-01T12:32:24;31.70;99.90
36446;DHT22;22472;50.848;-1.216;2022-08-01T12:34:53;31.50;99.90
36446;DHT22;22472;50.848;-1.216;2022-08-01T12:37:21;31.50;99.90
36446;DHT22;22472;50.848;-1.216;2022-08-01T12:39:48;31.30;99.90
36446;DHT22;22472;50.848;-1.216;2022-08-01T12:42:15;31.50;99.90
36446;DHT22;22472;50.848;-1.216;2022-08-01T12:44:45;31.80;99.90
36446;DHT22;22472;50.848;-1.216;2022-08-01T12:47:14;32.20;99.90
36446;DHT22;22472;50.848;-1.216;2022-08-01T12:49:43;32.20;99.90
36446;DHT22;22472;50.848;-1.216;2022-08-01T12:52:11;32.40;99.90
36446;DHT22;22472;50.848;-1.216;2022-08-01T12:55:04;32.60;99.90
36446;DHT22;22472;50.848;-1.216;2022-08-01T12:57:32;33.10;99.90
36446;DHT22;22472;50.848;-1.216;2022-08-01T13:00:18;32.40;99.90
36446;DHT22;22472;50.848;-1.216;2022-08-01T13:02:47;32.40;99.90
36446;DHT22;22472;50.848;-1.216;2022-08-01T13:05:15;33.20;99.90
36446;DHT22;22472;50.848;-1.216;2022-08-01T13:07:45;33.80;99.90
36446;DHT22;22472;50.848;-1.216;2022-08-01T13:10:13;33.80;99.90
36446;DHT22;22472;50.848;-1.216;2022-08-01T13:12:41;33.60;99.90
36446;DHT22;22472;50.848;-1.216;2022-08-01T13:15:18;33.10;99.90
36446;DHT22;22472;50.848;-1.216;2022-08-01T13:17:47;33.00;99.90
36446;DHT22;22472;50.848;-1.216;2022-08-01T13:20:31;33.20;99.90
36446;DHT22;22472;50.848;-1.216;2022-08-01T13:23:13;33.30;99.90
36446;DHT22;22472;50.848;-1.216;2022-08-01T13:25:51;33.30;99.90
36446;DHT22;22472;50.848;-1.216;2022-08-01T13:28:20;33.20;99.90
36446;DHT22;22472;50.848;-1.216;2022-08-01T13:30:56;33.00;99.90
36446;DHT22;22472;50.848;-1.216;2022-08-01T13:33:26;33.00;99.90
36446;DHT22;22472;50.848;-1.216;2022-08-01T13:35:55;33.00;99.90
36446;DHT22;22472;50.848;-1.216;2022-08-01T13:38:22;32.80;99.90
36446;DHT22;22472;50.848;-1.216;2022-08-01T13:41:09;33.40;99.90
36446;DHT22;22472;50.848;-1.216;2022-08-01T13:43:36;33.90;99.90
36446;DHT22;22472;50.848;-1.216;2022-08-01T13:46:03;34.10;99.90
36446;DHT22;22472;50.848;-1.216;2022-08-01T13:48:32;33.50;99.90
36446;DHT22;22472;50.848;-1.216;2022-08-01T13:50:59;33.90;99.90
36446;DHT22;22472;50.848;-1.216;2022-08-01T13:53:27;34.20;99.90
36446;DHT22;22472;50.848;-1.216;2022-08-01T13:55:54;34.20;99.90
36446;DHT22;22472;50.848;-1.216;2022-08-01T13:58:21;34.00;99.90
36446;DHT22;22472;50.848;-1.216;2022-08-01T14:00:48;33.70;99.90
36446;DHT22;22472;50.848;-1.216;2022-08-01T14:03:15;33.30;99.90
36446;DHT22;22472;50.848;-1.216;2022-08-01T14:05:44;33.30;99.90
36446;DHT22;22472;50.848;-1.216;2022-08-01T14:08:11;33.20;99.90
36446;DHT22;22472;50.848;-1.216;2022-08-01T14:10:38;33.20;99.90
36446;DHT22;22472;50.848;-1.216;2022-08-01T14:13:05;33.50;99.90
36446;DHT22;22472;50.848;-1.216;2022-08-01T14:15:32;33.20;99.90
36446;DHT22;22472;50.848;-1.216;2022-08-01T14:17:59;32.40;99.90
36446;DHT22;22472;50.848;-1.216;2022-08-01T14:20:26;32.30;99.90
36446;DHT22;22472;50.848;-1.216;2022-08-01T14:22:55;32.20;99.90
36446;DHT22;22472;50.848;-1.216;2022-08-01T14:25:22;31.90;99.90
36446;DHT22;22472;50.848;-1.216;2022-08-01T14:27:49;31.80;99.90
36446;DHT22;22472;50.848;-1.216;2022-08-01T14:30:16;31.50;99.90
36446;DHT22;22472;50.848;-1.216;2022-08-01T14:32:43;31.00;99.90
36446;DHT22;22472;50.848;-1.216;2022-08-01T14:35:10;31.00;99.90
36446;DHT22;22472;50.848;-1.216;2022-08-01T14:37:37;31.70;99.90
36446;DHT22;22472;50.848;-1.216;2022-08-01T14:40:06;31.90;99.90
36446;DHT22;22472;50.848;-1.216;2022-08-01T14:42:35;31.20;99.90
36446;DHT22;22472;50.848;-1.216;2022-08-01T14:45:03;30.90;99.90
36446;DHT22;22472;50.848;-1.216;2022-08-01T14:47:34;30.60;99.90
36446;DHT22;22472;50.848;-1.216;2022-08-01T14:50:02;30.60;99.90
36446;DHT22;22472;50.848;-1.216;2022-08-01T14:52:29;30.50;99.90
36446;DHT22;22472;50.848;-1.216;2022-08-01T14:54:56;29.80;99.90
36446;DHT22;22472;50.848;-1.216;2022-08-01T14:57:25;29.80;99.90
36446;DHT22;22472;50.848;-1.216;2022-08-01T14:59:52;29.90;99.90
36446;DHT22;22472;50.848;-1.216;2022-08-01T15:02:19;29.70;99.90
36446;DHT22;22472;50.848;-1.216;2022-08-01T15:04:46;29.40;99.90
36446;DHT22;22472;50.848;-1.216;2022-08-01T15:07:14;29.70;99.90
36446;DHT22;22472;50.848;-1.216;2022-08-01T15:09:42;29.70;99.90
36446;DHT22;22472;50.848;-1.216;2022-08-01T15:12:10;29.70;99.90
36446;DHT22;22472;50.848;-1.216;2022-08-01T15:14:38;29.60;99.90
36446;DHT22;22472;50.848;-1.216;2022-08-01T15:17:15;29.30;99.90
36446;DHT22;22472;50.848;-1.216;2022-08-01T15:19:42;29.20;99.90
36446;DHT22;22472;50.848;-1.216;2022-08-01T15:22:09;29.20;99.90
36446;DHT22;22472;50.848;-1.216;2022-08-01T15:24:36;29.50;99.90
36446;DHT22;22472;50.848;-1.216;2022-08-01T15:27:03;29.50;99.90
36446;DHT22;22472;50.848;-1.216;2022-08-01T15:29:30;29.40;99.90
36446;DHT22;22472;50.848;-1.216;2022-08-01T15:32:00;29.10;99.90
36446;DHT22;22472;50.848;-1.216;2022-08-01T15:34:27;28.90;99.90